Aerbrava en el facebook Aerbrava en el twitter Aerbrava Google+ Aerbrava instagram Aerbrava en el youtube Aerbrava tumblr Aerbrava flikr Aerbrava pinterest
aerbrava en catal&agà Aerbrava in English
Escuela de Pilotos
Teléfono 972234126 972 23 41 26
 
aerbrava en català Aerbrava in English
Aerbrava - Meteorología

Información meteorológica aeronáutica

 

En este apartado aparece la información meteorológica aeronáutica que es utilizada en las prácticas de los alumnos de la Escuela de Pilotos de nuestro centro durante su formación, por lo que puede no ser actual y se debería utilizar por su propia cuenta y riesgo. AERBRAVA no se hace responsable de su uso.

 

TIEMPO ACTUAL

Satélite Meteorológico

sat24.com

Servei Meteorològic de Catalunya

 

LEGE 200000Z 00000KT 9999 BKN020 08/07 Q1023
LEGE 192330Z 00000KT 9999 BKN020 08/08 Q1023
LEGE 192300Z 00000KT 9999 BKN020 07/07 Q1023
LEGE 192230Z 00000KT 9999 BKN022 08/07 Q1023
LEGE 192200Z VRB02KT 9999 BKN035 08/08 Q1023
LEGE 192130Z 00000KT 9999 BKN035 07/07 Q1023
LEGE 192100Z 00000KT 9999 SCT030 06/05 Q1023
LEGE 192030Z 00000KT 9999 SCT030 08/06 Q1023
TAF LEGE 192300Z 2000/2024 VRB03KT 9999 BKN030 TX18/2013Z TN04/2006Z   PROB40   TEMPO 2000/2008 4000 BR   PROB30   TEMPO 2002/2007 1000 BCFG   TEMPO 2010/2019 18010KT

Aviation Weather

 
Aerbrava en el facebook Aerbrava en el twitter Aerbrava Google+ Aerbrava instagram Aerbrava en el youtube Aerbrava tumblr Aerbrava flikr Aerbrava pinterest

¡CSS Vàlid!